sensor_id;sensor_type;location;lat;lon;timestamp;P1;durP1;ratioP1;P2;durP2;ratioP2
30553;SDS011;17335;50.720;7.452;2024-01-15T00:01:58;18.08;;;6.60;;
30553;SDS011;17335;50.720;7.452;2024-01-15T00:04:24;12.60;;;6.15;;
30553;SDS011;17335;50.720;7.452;2024-01-15T00:06:51;24.33;;;7.75;;
30553;SDS011;17335;50.720;7.452;2024-01-15T00:09:17;18.27;;;7.07;;
30553;SDS011;17335;50.720;7.452;2024-01-15T00:11:44;15.93;;;7.20;;
30553;SDS011;17335;50.720;7.452;2024-01-15T00:14:10;23.20;;;7.90;;
30553;SDS011;17335;50.720;7.452;2024-01-15T00:16:39;23.23;;;8.07;;
30553;SDS011;17335;50.720;7.452;2024-01-15T00:19:07;21.15;;;7.63;;
30553;SDS011;17335;50.720;7.452;2024-01-15T00:21:33;19.90;;;7.57;;
30553;SDS011;17335;50.720;7.452;2024-01-15T00:24:00;23.48;;;7.88;;
30553;SDS011;17335;50.720;7.452;2024-01-15T00:26:26;17.85;;;7.10;;
30553;SDS011;17335;50.720;7.452;2024-01-15T00:28:53;21.35;;;6.95;;
30553;SDS011;17335;50.720;7.452;2024-01-15T00:31:19;23.75;;;7.88;;
30553;SDS011;17335;50.720;7.452;2024-01-15T00:33:46;24.13;;;8.15;;
30553;SDS011;17335;50.720;7.452;2024-01-15T00:36:13;20.20;;;7.07;;
30553;SDS011;17335;50.720;7.452;2024-01-15T00:38:40;17.63;;;7.40;;
30553;SDS011;17335;50.720;7.452;2024-01-15T00:41:07;21.73;;;8.18;;
30553;SDS011;17335;50.720;7.452;2024-01-15T00:43:33;19.30;;;7.72;;
30553;SDS011;17335;50.720;7.452;2024-01-15T00:46:01;22.48;;;6.85;;
30553;SDS011;17335;50.720;7.452;2024-01-15T00:48:29;16.08;;;6.75;;
30553;SDS011;17335;50.720;7.452;2024-01-15T00:50:56;18.65;;;6.28;;
30553;SDS011;17335;50.720;7.452;2024-01-15T00:53:22;18.35;;;7.05;;
30553;SDS011;17335;50.720;7.452;2024-01-15T00:55:49;15.50;;;6.72;;
30553;SDS011;17335;50.720;7.452;2024-01-15T00:58:16;19.77;;;8.18;;
30553;SDS011;17335;50.720;7.452;2024-01-15T01:00:42;17.27;;;6.97;;
30553;SDS011;17335;50.720;7.452;2024-01-15T01:03:09;19.92;;;7.50;;
30553;SDS011;17335;50.720;7.452;2024-01-15T01:05:36;20.17;;;6.65;;
30553;SDS011;17335;50.720;7.452;2024-01-15T01:08:03;21.20;;;7.68;;
30553;SDS011;17335;50.720;7.452;2024-01-15T01:10:30;17.55;;;6.88;;
30553;SDS011;17335;50.720;7.452;2024-01-15T01:12:57;22.38;;;7.78;;
30553;SDS011;17335;50.720;7.452;2024-01-15T01:15:23;20.95;;;6.82;;
30553;SDS011;17335;50.720;7.452;2024-01-15T01:17:50;15.15;;;5.93;;
30553;SDS011;17335;50.720;7.452;2024-01-15T01:20:17;16.85;;;6.88;;
30553;SDS011;17335;50.720;7.452;2024-01-15T01:22:44;25.48;;;6.80;;
30553;SDS011;17335;50.720;7.452;2024-01-15T01:25:11;20.35;;;6.60;;
30553;SDS011;17335;50.720;7.452;2024-01-15T01:27:38;14.43;;;6.32;;
30553;SDS011;17335;50.720;7.452;2024-01-15T01:30:04;16.20;;;6.35;;
30553;SDS011;17335;50.720;7.452;2024-01-15T01:32:31;16.73;;;6.50;;
30553;SDS011;17335;50.720;7.452;2024-01-15T01:34:58;15.82;;;6.30;;
30553;SDS011;17335;50.720;7.452;2024-01-15T01:37:25;19.20;;;6.82;;
30553;SDS011;17335;50.720;7.452;2024-01-15T01:39:51;17.25;;;7.22;;
30553;SDS011;17335;50.720;7.452;2024-01-15T01:42:19;19.23;;;7.55;;
30553;SDS011;17335;50.720;7.452;2024-01-15T01:44:45;19.58;;;7.90;;
30553;SDS011;17335;50.720;7.452;2024-01-15T01:47:12;21.02;;;7.95;;
30553;SDS011;17335;50.720;7.452;2024-01-15T01:49:41;23.45;;;7.90;;
30553;SDS011;17335;50.720;7.452;2024-01-15T01:52:08;16.02;;;6.82;;
30553;SDS011;17335;50.720;7.452;2024-01-15T01:54:35;18.25;;;7.43;;
30553;SDS011;17335;50.720;7.452;2024-01-15T01:57:03;22.98;;;7.88;;
30553;SDS011;17335;50.720;7.452;2024-01-15T01:59:32;20.08;;;7.45;;
30553;SDS011;17335;50.720;7.452;2024-01-15T02:02:00;23.02;;;7.07;;
30553;SDS011;17335;50.720;7.452;2024-01-15T02:04:30;22.90;;;7.82;;
30553;SDS011;17335;50.720;7.452;2024-01-15T02:06:58;22.55;;;8.35;;
30553;SDS011;17335;50.720;7.452;2024-01-15T02:09:25;18.63;;;6.82;;
30553;SDS011;17335;50.720;7.452;2024-01-15T02:11:52;22.70;;;6.85;;
30553;SDS011;17335;50.720;7.452;2024-01-15T02:14:19;18.77;;;7.57;;
30553;SDS011;17335;50.720;7.452;2024-01-15T02:16:45;27.67;;;7.72;;
30553;SDS011;17335;50.720;7.452;2024-01-15T02:19:15;25.05;;;9.85;;
30553;SDS011;17335;50.720;7.452;2024-01-15T02:21:43;24.48;;;8.32;;
30553;SDS011;17335;50.720;7.452;2024-01-15T02:24:10;20.45;;;7.97;;
30553;SDS011;17335;50.720;7.452;2024-01-15T02:26:37;21.38;;;8.68;;
30553;SDS011;17335;50.720;7.452;2024-01-15T02:29:05;24.23;;;8.98;;
30553;SDS011;17335;50.720;7.452;2024-01-15T02:31:35;24.25;;;8.85;;
30553;SDS011;17335;50.720;7.452;2024-01-15T02:34:02;26.40;;;9.13;;
30553;SDS011;17335;50.720;7.452;2024-01-15T02:36:29;25.70;;;7.63;;
30553;SDS011;17335;50.720;7.452;2024-01-15T02:38:56;24.63;;;8.68;;
30553;SDS011;17335;50.720;7.452;2024-01-15T02:41:22;31.52;;;8.98;;
30553;SDS011;17335;50.720;7.452;2024-01-15T02:43:49;20.10;;;9.23;;
30553;SDS011;17335;50.720;7.452;2024-01-15T02:46:15;25.17;;;8.75;;
30553;SDS011;17335;50.720;7.452;2024-01-15T02:48:42;21.55;;;8.45;;
30553;SDS011;17335;50.720;7.452;2024-01-15T02:51:09;27.95;;;8.70;;
30553;SDS011;17335;50.720;7.452;2024-01-15T02:53:36;27.35;;;8.65;;
30553;SDS011;17335;50.720;7.452;2024-01-15T02:56:03;23.27;;;8.35;;
30553;SDS011;17335;50.720;7.452;2024-01-15T02:58:30;23.65;;;9.38;;
30553;SDS011;17335;50.720;7.452;2024-01-15T03:00:57;20.13;;;8.30;;
30553;SDS011;17335;50.720;7.452;2024-01-15T03:03:23;20.70;;;8.38;;
30553;SDS011;17335;50.720;7.452;2024-01-15T03:05:50;28.40;;;9.70;;
30553;SDS011;17335;50.720;7.452;2024-01-15T03:08:16;27.08;;;9.70;;
30553;SDS011;17335;50.720;7.452;2024-01-15T03:10:43;25.20;;;9.65;;
30553;SDS011;17335;50.720;7.452;2024-01-15T03:13:09;27.20;;;9.05;;
30553;SDS011;17335;50.720;7.452;2024-01-15T03:15:36;20.95;;;7.95;;
30553;SDS011;17335;50.720;7.452;2024-01-15T03:18:02;26.48;;;8.65;;
30553;SDS011;17335;50.720;7.452;2024-01-15T03:20:29;25.85;;;9.30;;
30553;SDS011;17335;50.720;7.452;2024-01-15T03:22:56;25.95;;;10.07;;
30553;SDS011;17335;50.720;7.452;2024-01-15T03:25:22;21.98;;;9.32;;
30553;SDS011;17335;50.720;7.452;2024-01-15T03:27:49;25.88;;;9.75;;
30553;SDS011;17335;50.720;7.452;2024-01-15T03:30:15;21.30;;;8.43;;
30553;SDS011;17335;50.720;7.452;2024-01-15T03:32:42;23.10;;;8.90;;
30553;SDS011;17335;50.720;7.452;2024-01-15T03:35:08;19.38;;;8.60;;
30553;SDS011;17335;50.720;7.452;2024-01-15T03:37:35;30.83;;;10.05;;
30553;SDS011;17335;50.720;7.452;2024-01-15T03:40:01;23.95;;;9.07;;
30553;SDS011;17335;50.720;7.452;2024-01-15T03:42:29;22.80;;;8.45;;
30553;SDS011;17335;50.720;7.452;2024-01-15T03:44:55;21.55;;;9.50;;
30553;SDS011;17335;50.720;7.452;2024-01-15T03:47:21;18.95;;;8.90;;
30553;SDS011;17335;50.720;7.452;2024-01-15T03:49:48;26.48;;;9.15;;
30553;SDS011;17335;50.720;7.452;2024-01-15T03:52:15;22.95;;;8.63;;
30553;SDS011;17335;50.720;7.452;2024-01-15T03:54:41;18.08;;;7.10;;
30553;SDS011;17335;50.720;7.452;2024-01-15T03:57:08;23.17;;;8.73;;
30553;SDS011;17335;50.720;7.452;2024-01-15T03:59:34;25.70;;;9.23;;
30553;SDS011;17335;50.720;7.452;2024-01-15T04:02:01;22.45;;;7.88;;
30553;SDS011;17335;50.720;7.452;2024-01-15T04:04:27;26.20;;;8.10;;
30553;SDS011;17335;50.720;7.452;2024-01-15T04:06:54;16.73;;;7.60;;
30553;SDS011;17335;50.720;7.452;2024-01-15T04:09:20;23.27;;;9.13;;
30553;SDS011;17335;50.720;7.452;2024-01-15T04:11:48;20.48;;;8.18;;
30553;SDS011;17335;50.720;7.452;2024-01-15T04:14:14;23.20;;;8.15;;
30553;SDS011;17335;50.720;7.452;2024-01-15T04:16:41;20.70;;;9.73;;
30553;SDS011;17335;50.720;7.452;2024-01-15T04:19:07;25.80;;;9.27;;
30553;SDS011;17335;50.720;7.452;2024-01-15T04:21:34;21.48;;;8.10;;
30553;SDS011;17335;50.720;7.452;2024-01-15T04:24:00;22.63;;;8.45;;
30553;SDS011;17335;50.720;7.452;2024-01-15T04:26:27;19.55;;;8.02;;
30553;SDS011;17335;50.720;7.452;2024-01-15T04:28:53;22.23;;;8.50;;
30553;SDS011;17335;50.720;7.452;2024-01-15T04:31:21;19.10;;;8.07;;
30553;SDS011;17335;50.720;7.452;2024-01-15T04:33:49;20.65;;;8.60;;
30553;SDS011;17335;50.720;7.452;2024-01-15T04:36:15;18.65;;;8.00;;
30553;SDS011;17335;50.720;7.452;2024-01-15T04:38:42;19.30;;;7.75;;
30553;SDS011;17335;50.720;7.452;2024-01-15T04:41:12;25.35;;;8.88;;
30553;SDS011;17335;50.720;7.452;2024-01-15T04:43:39;19.45;;;8.20;;
30553;SDS011;17335;50.720;7.452;2024-01-15T04:46:06;19.88;;;7.88;;
30553;SDS011;17335;50.720;7.452;2024-01-15T04:48:33;19.75;;;8.95;;
30553;SDS011;17335;50.720;7.452;2024-01-15T04:51:00;21.35;;;9.20;;
30553;SDS011;17335;50.720;7.452;2024-01-15T04:53:29;24.75;;;8.48;;
30553;SDS011;17335;50.720;7.452;2024-01-15T04:55:57;25.73;;;8.45;;
30553;SDS011;17335;50.720;7.452;2024-01-15T04:58:23;26.08;;;7.75;;
30553;SDS011;17335;50.720;7.452;2024-01-15T05:00:52;25.30;;;9.18;;
30553;SDS011;17335;50.720;7.452;2024-01-15T05:03:20;18.00;;;8.73;;
30553;SDS011;17335;50.720;7.452;2024-01-15T05:05:47;26.05;;;9.20;;
30553;SDS011;17335;50.720;7.452;2024-01-15T05:08:13;21.42;;;8.82;;
30553;SDS011;17335;50.720;7.452;2024-01-15T05:10:40;23.85;;;7.90;;
30553;SDS011;17335;50.720;7.452;2024-01-15T05:13:06;23.52;;;8.48;;
30553;SDS011;17335;50.720;7.452;2024-01-15T05:15:32;18.85;;;7.25;;
30553;SDS011;17335;50.720;7.452;2024-01-15T05:17:59;20.80;;;7.40;;
30553;SDS011;17335;50.720;7.452;2024-01-15T05:20:26;18.60;;;7.95;;
30553;SDS011;17335;50.720;7.452;2024-01-15T05:22:52;19.10;;;8.13;;
30553;SDS011;17335;50.720;7.452;2024-01-15T05:25:18;15.63;;;6.35;;
30553;SDS011;17335;50.720;7.452;2024-01-15T05:27:45;19.48;;;7.35;;
30553;SDS011;17335;50.720;7.452;2024-01-15T05:30:11;18.23;;;7.60;;
30553;SDS011;17335;50.720;7.452;2024-01-15T05:32:39;17.25;;;8.18;;
30553;SDS011;17335;50.720;7.452;2024-01-15T05:35:05;19.80;;;7.65;;
30553;SDS011;17335;50.720;7.452;2024-01-15T05:37:32;18.52;;;7.88;;
30553;SDS011;17335;50.720;7.452;2024-01-15T05:39:59;14.57;;;6.05;;
30553;SDS011;17335;50.720;7.452;2024-01-15T05:42:25;15.40;;;7.40;;
30553;SDS011;17335;50.720;7.452;2024-01-15T05:44:52;17.50;;;7.03;;
30553;SDS011;17335;50.720;7.452;2024-01-15T05:47:19;14.48;;;7.15;;
30553;SDS011;17335;50.720;7.452;2024-01-15T05:49:45;16.10;;;6.63;;
30553;SDS011;17335;50.720;7.452;2024-01-15T05:52:12;16.60;;;6.25;;
30553;SDS011;17335;50.720;7.452;2024-01-15T05:54:38;24.30;;;8.07;;
30553;SDS011;17335;50.720;7.452;2024-01-15T05:57:05;20.17;;;7.35;;
30553;SDS011;17335;50.720;7.452;2024-01-15T05:59:32;14.90;;;6.32;;
30553;SDS011;17335;50.720;7.452;2024-01-15T06:02:00;16.58;;;7.15;;
30553;SDS011;17335;50.720;7.452;2024-01-15T06:04:26;19.45;;;8.23;;
30553;SDS011;17335;50.720;7.452;2024-01-15T06:06:53;16.15;;;7.40;;
30553;SDS011;17335;50.720;7.452;2024-01-15T06:09:20;16.45;;;7.30;;
30553;SDS011;17335;50.720;7.452;2024-01-15T06:11:46;16.83;;;6.47;;
30553;SDS011;17335;50.720;7.452;2024-01-15T06:14:13;15.13;;;7.18;;
30553;SDS011;17335;50.720;7.452;2024-01-15T06:16:39;18.05;;;7.53;;
30553;SDS011;17335;50.720;7.452;2024-01-15T06:19:06;15.65;;;6.05;;
30553;SDS011;17335;50.720;7.452;2024-01-15T06:21:32;17.20;;;7.70;;
30553;SDS011;17335;50.720;7.452;2024-01-15T06:24:00;20.13;;;7.80;;
30553;SDS011;17335;50.720;7.452;2024-01-15T06:26:26;15.45;;;6.18;;
30553;SDS011;17335;50.720;7.452;2024-01-15T06:28:53;15.02;;;6.47;;
30553;SDS011;17335;50.720;7.452;2024-01-15T06:31:19;18.60;;;7.47;;
30553;SDS011;17335;50.720;7.452;2024-01-15T06:33:46;22.55;;;6.78;;
30553;SDS011;17335;50.720;7.452;2024-01-15T06:36:14;13.85;;;6.38;;
30553;SDS011;17335;50.720;7.452;2024-01-15T06:38:45;21.95;;;7.78;;
30553;SDS011;17335;50.720;7.452;2024-01-15T06:41:12;11.18;;;5.55;;
30553;SDS011;17335;50.720;7.452;2024-01-15T06:43:38;13.32;;;6.15;;
30553;SDS011;17335;50.720;7.452;2024-01-15T06:46:05;12.00;;;6.60;;
30553;SDS011;17335;50.720;7.452;2024-01-15T06:48:33;14.73;;;6.18;;
30553;SDS011;17335;50.720;7.452;2024-01-15T06:51:00;21.27;;;6.65;;
30553;SDS011;17335;50.720;7.452;2024-01-15T06:53:27;17.13;;;5.88;;
30553;SDS011;17335;50.720;7.452;2024-01-15T06:55:53;15.27;;;6.88;;
30553;SDS011;17335;50.720;7.452;2024-01-15T06:58:19;15.18;;;6.18;;
30553;SDS011;17335;50.720;7.452;2024-01-15T07:00:46;14.70;;;5.72;;
30553;SDS011;17335;50.720;7.452;2024-01-15T07:03:13;18.98;;;6.53;;
30553;SDS011;17335;50.720;7.452;2024-01-15T07:05:39;14.27;;;5.85;;
30553;SDS011;17335;50.720;7.452;2024-01-15T07:08:06;22.13;;;6.72;;
30553;SDS011;17335;50.720;7.452;2024-01-15T07:10:32;21.73;;;7.47;;
30553;SDS011;17335;50.720;7.452;2024-01-15T07:13:05;13.25;;;6.15;;
30553;SDS011;17335;50.720;7.452;2024-01-15T07:15:34;12.70;;;6.22;;
30553;SDS011;17335;50.720;7.452;2024-01-15T07:18:01;14.52;;;6.32;;
30553;SDS011;17335;50.720;7.452;2024-01-15T07:20:28;14.07;;;5.65;;
30553;SDS011;17335;50.720;7.452;2024-01-15T07:22:54;11.40;;;6.00;;
30553;SDS011;17335;50.720;7.452;2024-01-15T07:25:21;21.45;;;6.70;;
30553;SDS011;17335;50.720;7.452;2024-01-15T07:27:47;18.67;;;6.43;;
30553;SDS011;17335;50.720;7.452;2024-01-15T07:30:14;20.35;;;6.85;;
30553;SDS011;17335;50.720;7.452;2024-01-15T07:32:41;19.05;;;6.47;;
30553;SDS011;17335;50.720;7.452;2024-01-15T07:35:08;21.35;;;6.47;;
30553;SDS011;17335;50.720;7.452;2024-01-15T07:37:34;14.75;;;6.55;;
30553;SDS011;17335;50.720;7.452;2024-01-15T07:40:01;14.00;;;6.35;;
30553;SDS011;17335;50.720;7.452;2024-01-15T07:42:27;16.30;;;6.25;;
30553;SDS011;17335;50.720;7.452;2024-01-15T07:44:54;14.98;;;6.47;;
30553;SDS011;17335;50.720;7.452;2024-01-15T07:47:20;20.95;;;6.90;;
30553;SDS011;17335;50.720;7.452;2024-01-15T07:49:47;13.93;;;6.30;;
30553;SDS011;17335;50.720;7.452;2024-01-15T07:52:14;14.60;;;7.55;;
30553;SDS011;17335;50.720;7.452;2024-01-15T07:54:40;15.10;;;5.82;;
30553;SDS011;17335;50.720;7.452;2024-01-15T07:57:07;14.18;;;6.22;;
30553;SDS011;17335;50.720;7.452;2024-01-15T07:59:34;18.40;;;7.22;;
30553;SDS011;17335;50.720;7.452;2024-01-15T08:02:01;12.93;;;6.45;;
30553;SDS011;17335;50.720;7.452;2024-01-15T08:04:28;12.80;;;5.35;;
30553;SDS011;17335;50.720;7.452;2024-01-15T08:06:55;16.10;;;6.35;;
30553;SDS011;17335;50.720;7.452;2024-01-15T08:09:23;12.48;;;5.38;;
30553;SDS011;17335;50.720;7.452;2024-01-15T08:11:49;18.60;;;6.82;;
30553;SDS011;17335;50.720;7.452;2024-01-15T08:14:16;12.55;;;6.32;;
30553;SDS011;17335;50.720;7.452;2024-01-15T08:16:42;18.17;;;6.90;;
30553;SDS011;17335;50.720;7.452;2024-01-15T08:19:09;16.15;;;6.68;;
30553;SDS011;17335;50.720;7.452;2024-01-15T08:21:36;17.58;;;6.45;;
30553;SDS011;17335;50.720;7.452;2024-01-15T08:24:03;23.48;;;6.47;;
30553;SDS011;17335;50.720;7.452;2024-01-15T08:26:30;19.05;;;6.82;;
30553;SDS011;17335;50.720;7.452;2024-01-15T08:28:56;15.57;;;6.03;;
30553;SDS011;17335;50.720;7.452;2024-01-15T08:31:23;18.13;;;6.68;;
30553;SDS011;17335;50.720;7.452;2024-01-15T08:33:49;17.65;;;6.47;;
30553;SDS011;17335;50.720;7.452;2024-01-15T08:36:16;14.95;;;6.68;;
30553;SDS011;17335;50.720;7.452;2024-01-15T08:38:43;19.40;;;6.57;;
30553;SDS011;17335;50.720;7.452;2024-01-15T08:41:10;16.15;;;5.60;;
30553;SDS011;17335;50.720;7.452;2024-01-15T08:43:37;17.95;;;6.00;;
30553;SDS011;17335;50.720;7.452;2024-01-15T08:46:03;20.27;;;6.05;;
30553;SDS011;17335;50.720;7.452;2024-01-15T08:48:30;12.52;;;5.93;;
30553;SDS011;17335;50.720;7.452;2024-01-15T08:50:56;15.75;;;6.05;;
30553;SDS011;17335;50.720;7.452;2024-01-15T08:53:23;13.40;;;5.65;;
30553;SDS011;17335;50.720;7.452;2024-01-15T08:55:50;16.30;;;5.47;;
30553;SDS011;17335;50.720;7.452;2024-01-15T08:58:16;16.08;;;6.25;;
30553;SDS011;17335;50.720;7.452;2024-01-15T09:00:43;15.65;;;5.75;;
30553;SDS011;17335;50.720;7.452;2024-01-15T09:03:10;15.23;;;5.72;;
30553;SDS011;17335;50.720;7.452;2024-01-15T09:05:37;13.95;;;5.57;;
30553;SDS011;17335;50.720;7.452;2024-01-15T09:08:04;17.13;;;5.22;;
30553;SDS011;17335;50.720;7.452;2024-01-15T09:10:31;14.80;;;6.63;;
30553;SDS011;17335;50.720;7.452;2024-01-15T09:12:58;24.73;;;6.55;;
30553;SDS011;17335;50.720;7.452;2024-01-15T09:15:25;12.65;;;5.80;;
30553;SDS011;17335;50.720;7.452;2024-01-15T09:17:51;15.75;;;5.90;;
30553;SDS011;17335;50.720;7.452;2024-01-15T09:20:18;19.33;;;6.50;;
30553;SDS011;17335;50.720;7.452;2024-01-15T09:22:44;15.27;;;5.60;;
30553;SDS011;17335;50.720;7.452;2024-01-15T09:25:11;17.52;;;6.53;;
30553;SDS011;17335;50.720;7.452;2024-01-15T09:27:38;15.00;;;6.00;;
30553;SDS011;17335;50.720;7.452;2024-01-15T09:30:05;13.57;;;5.35;;
30553;SDS011;17335;50.720;7.452;2024-01-15T09:32:32;16.50;;;6.18;;
30553;SDS011;17335;50.720;7.452;2024-01-15T09:34:59;17.20;;;6.10;;
30553;SDS011;17335;50.720;7.452;2024-01-15T09:37:25;17.38;;;6.30;;
30553;SDS011;17335;50.720;7.452;2024-01-15T09:40:11;31.52;;;6.50;;
30553;SDS011;17335;50.720;7.452;2024-01-15T09:42:40;19.55;;;5.85;;
30553;SDS011;17335;50.720;7.452;2024-01-15T09:45:08;13.93;;;6.03;;
30553;SDS011;17335;50.720;7.452;2024-01-15T09:47:36;16.45;;;5.68;;
30553;SDS011;17335;50.720;7.452;2024-01-15T09:50:07;13.85;;;6.00;;
30553;SDS011;17335;50.720;7.452;2024-01-15T09:52:35;18.85;;;5.72;;
30553;SDS011;17335;50.720;7.452;2024-01-15T09:55:03;14.38;;;5.97;;
30553;SDS011;17335;50.720;7.452;2024-01-15T09:57:31;12.90;;;5.35;;
30553;SDS011;17335;50.720;7.452;2024-01-15T09:59:59;15.15;;;5.22;;
30553;SDS011;17335;50.720;7.452;2024-01-15T10:02:30;15.90;;;5.78;;
30553;SDS011;17335;50.720;7.452;2024-01-15T10:04:57;18.02;;;5.47;;
30553;SDS011;17335;50.720;7.452;2024-01-15T10:07:23;19.85;;;6.40;;
30553;SDS011;17335;50.720;7.452;2024-01-15T10:09:52;11.98;;;5.28;;
30553;SDS011;17335;50.720;7.452;2024-01-15T10:12:18;14.35;;;5.18;;
30553;SDS011;17335;50.720;7.452;2024-01-15T10:14:47;15.63;;;5.82;;
30553;SDS011;17335;50.720;7.452;2024-01-15T10:17:15;16.45;;;5.90;;
30553;SDS011;17335;50.720;7.452;2024-01-15T10:19:42;19.98;;;5.80;;
30553;SDS011;17335;50.720;7.452;2024-01-15T10:22:13;13.05;;;4.63;;
30553;SDS011;17335;50.720;7.452;2024-01-15T10:24:41;11.38;;;4.47;;
30553;SDS011;17335;50.720;7.452;2024-01-15T10:27:09;16.27;;;4.80;;
30553;SDS011;17335;50.720;7.452;2024-01-15T10:29:36;9.93;;;4.35;;
30553;SDS011;17335;50.720;7.452;2024-01-15T10:32:05;15.05;;;4.90;;
30553;SDS011;17335;50.720;7.452;2024-01-15T10:34:33;13.35;;;4.05;;
30553;SDS011;17335;50.720;7.452;2024-01-15T10:37:03;7.90;;;4.03;;
30553;SDS011;17335;50.720;7.452;2024-01-15T10:39:30;9.60;;;4.22;;
30553;SDS011;17335;50.720;7.452;2024-01-15T10:41:57;6.75;;;3.80;;
30553;SDS011;17335;50.720;7.452;2024-01-15T10:44:23;8.90;;;4.43;;
30553;SDS011;17335;50.720;7.452;2024-01-15T10:46:55;7.57;;;4.13;;
30553;SDS011;17335;50.720;7.452;2024-01-15T10:49:23;7.68;;;3.70;;
30553;SDS011;17335;50.720;7.452;2024-01-15T10:51:58;8.32;;;4.32;;
30553;SDS011;17335;50.720;7.452;2024-01-15T10:54:25;8.18;;;4.20;;
30553;SDS011;17335;50.720;7.452;2024-01-15T10:56:53;10.32;;;4.57;;
30553;SDS011;17335;50.720;7.452;2024-01-15T10:59:21;8.80;;;4.75;;
30553;SDS011;17335;50.720;7.452;2024-01-15T11:01:49;11.07;;;5.15;;
30553;SDS011;17335;50.720;7.452;2024-01-15T11:04:20;10.95;;;5.30;;
30553;SDS011;17335;50.720;7.452;2024-01-15T11:06:50;10.35;;;4.57;;
30553;SDS011;17335;50.720;7.452;2024-01-15T11:09:20;10.57;;;4.78;;
30553;SDS011;17335;50.720;7.452;2024-01-15T11:11:46;9.80;;;5.25;;
30553;SDS011;17335;50.720;7.452;2024-01-15T11:17:01;12.80;;;4.50;;
30553;SDS011;17335;50.720;7.452;2024-01-15T11:19:35;8.95;;;4.10;;
30553;SDS011;17335;50.720;7.452;2024-01-15T11:24:36;7.57;;;4.07;;
30553;SDS011;17335;50.720;7.452;2024-01-15T11:27:04;8.05;;;4.13;;
30553;SDS011;17335;50.720;7.452;2024-01-15T11:29:36;11.63;;;4.68;;
30553;SDS011;17335;50.720;7.452;2024-01-15T11:32:06;10.80;;;5.63;;
30553;SDS011;17335;50.720;7.452;2024-01-15T11:37:26;11.68;;;4.32;;
30553;SDS011;17335;50.720;7.452;2024-01-15T11:39:55;9.40;;;4.30;;
30553;SDS011;17335;50.720;7.452;2024-01-15T11:42:27;8.75;;;3.75;;
30553;SDS011;17335;50.720;7.452;2024-01-15T11:44:54;7.55;;;3.95;;
30553;SDS011;17335;50.720;7.452;2024-01-15T11:50:30;12.45;;;5.05;;
30553;SDS011;17335;50.720;7.452;2024-01-15T11:53:00;9.55;;;4.93;;
30553;SDS011;17335;50.720;7.452;2024-01-15T11:55:33;11.15;;;4.97;;
30553;SDS011;17335;50.720;7.452;2024-01-15T11:58:02;9.15;;;4.93;;
30553;SDS011;17335;50.720;7.452;2024-01-15T12:00:34;9.18;;;4.80;;
30553;SDS011;17335;50.720;7.452;2024-01-15T12:03:05;9.70;;;5.40;;
30553;SDS011;17335;50.720;7.452;2024-01-15T12:05:32;14.90;;;4.57;;
30553;SDS011;17335;50.720;7.452;2024-01-15T12:07:58;10.60;;;5.35;;
30553;SDS011;17335;50.720;7.452;2024-01-15T12:10:25;9.95;;;4.78;;
30553;SDS011;17335;50.720;7.452;2024-01-15T12:12:54;12.82;;;5.30;;
30553;SDS011;17335;50.720;7.452;2024-01-15T12:15:25;16.15;;;6.75;;
30553;SDS011;17335;50.720;7.452;2024-01-15T12:17:56;11.57;;;5.78;;
30553;SDS011;17335;50.720;7.452;2024-01-15T12:20:28;17.92;;;5.47;;
30553;SDS011;17335;50.720;7.452;2024-01-15T12:22:56;10.13;;;5.38;;
30553;SDS011;17335;50.720;7.452;2024-01-15T12:25:29;12.68;;;5.88;;
30553;SDS011;17335;50.720;7.452;2024-01-15T12:27:56;10.38;;;5.40;;
30553;SDS011;17335;50.720;7.452;2024-01-15T12:30:23;11.45;;;5.50;;
30553;SDS011;17335;50.720;7.452;2024-01-15T12:32:50;12.23;;;5.57;;
30553;SDS011;17335;50.720;7.452;2024-01-15T12:35:16;13.57;;;6.18;;
30553;SDS011;17335;50.720;7.452;2024-01-15T12:37:43;14.38;;;6.38;;
30553;SDS011;17335;50.720;7.452;2024-01-15T12:40:12;11.73;;;5.95;;
30553;SDS011;17335;50.720;7.452;2024-01-15T12:42:40;10.93;;;6.28;;
30553;SDS011;17335;50.720;7.452;2024-01-15T12:45:09;18.23;;;6.60;;
30553;SDS011;17335;50.720;7.452;2024-01-15T12:47:36;13.32;;;6.30;;
30553;SDS011;17335;50.720;7.452;2024-01-15T12:50:07;13.30;;;6.35;;
30553;SDS011;17335;50.720;7.452;2024-01-15T12:52:44;10.68;;;5.85;;
30553;SDS011;17335;50.720;7.452;2024-01-15T12:55:10;21.60;;;6.22;;
30553;SDS011;17335;50.720;7.452;2024-01-15T12:57:38;18.58;;;7.30;;
30553;SDS011;17335;50.720;7.452;2024-01-15T13:00:05;9.75;;;5.78;;
30553;SDS011;17335;50.720;7.452;2024-01-15T13:05:10;17.05;;;6.07;;
30553;SDS011;17335;50.720;7.452;2024-01-15T13:07:40;12.30;;;5.18;;
30553;SDS011;17335;50.720;7.452;2024-01-15T13:10:06;17.88;;;7.15;;
30553;SDS011;17335;50.720;7.452;2024-01-15T13:12:35;16.77;;;6.38;;
30553;SDS011;17335;50.720;7.452;2024-01-15T13:15:03;13.50;;;5.03;;
30553;SDS011;17335;50.720;7.452;2024-01-15T13:17:30;14.10;;;5.07;;
30553;SDS011;17335;50.720;7.452;2024-01-15T13:19:57;15.13;;;5.22;;
30553;SDS011;17335;50.720;7.452;2024-01-15T13:22:23;15.35;;;5.72;;
30553;SDS011;17335;50.720;7.452;2024-01-15T13:24:55;11.60;;;4.93;;
30553;SDS011;17335;50.720;7.452;2024-01-15T13:27:22;23.13;;;6.32;;
30553;SDS011;17335;50.720;7.452;2024-01-15T13:29:49;9.93;;;5.22;;
30553;SDS011;17335;50.720;7.452;2024-01-15T13:32:17;12.07;;;5.15;;
30553;SDS011;17335;50.720;7.452;2024-01-15T13:34:51;14.07;;;4.55;;
30553;SDS011;17335;50.720;7.452;2024-01-15T13:37:18;13.27;;;5.18;;
30553;SDS011;17335;50.720;7.452;2024-01-15T13:39:44;10.85;;;5.28;;
30553;SDS011;17335;50.720;7.452;2024-01-15T13:42:11;11.05;;;4.80;;
30553;SDS011;17335;50.720;7.452;2024-01-15T13:44:38;12.80;;;5.60;;
30553;SDS011;17335;50.720;7.452;2024-01-15T13:47:05;10.00;;;5.32;;
30553;SDS011;17335;50.720;7.452;2024-01-15T13:49:31;17.58;;;4.68;;
30553;SDS011;17335;50.720;7.452;2024-01-15T13:52:00;15.65;;;5.70;;
30553;SDS011;17335;50.720;7.452;2024-01-15T13:54:26;7.72;;;3.63;;
30553;SDS011;17335;50.720;7.452;2024-01-15T13:57:11;12.00;;;4.20;;
30553;SDS011;17335;50.720;7.452;2024-01-15T13:59:37;14.30;;;4.32;;
30553;SDS011;17335;50.720;7.452;2024-01-15T14:02:04;11.30;;;4.53;;
30553;SDS011;17335;50.720;7.452;2024-01-15T14:04:31;13.98;;;4.85;;
30553;SDS011;17335;50.720;7.452;2024-01-15T14:06:57;12.52;;;4.15;;
30553;SDS011;17335;50.720;7.452;2024-01-15T14:09:24;7.13;;;3.72;;
30553;SDS011;17335;50.720;7.452;2024-01-15T14:11:51;10.90;;;3.90;;
30553;SDS011;17335;50.720;7.452;2024-01-15T14:14:18;7.68;;;3.72;;
30553;SDS011;17335;50.720;7.452;2024-01-15T14:16:44;8.95;;;3.58;;
30553;SDS011;17335;50.720;7.452;2024-01-15T14:19:11;8.23;;;4.05;;
30553;SDS011;17335;50.720;7.452;2024-01-15T14:21:37;6.05;;;3.20;;
30553;SDS011;17335;50.720;7.452;2024-01-15T14:24:04;7.88;;;3.55;;
30553;SDS011;17335;50.720;7.452;2024-01-15T14:26:32;4.35;;;2.70;;
30553;SDS011;17335;50.720;7.452;2024-01-15T14:28:58;11.07;;;3.50;;
30553;SDS011;17335;50.720;7.452;2024-01-15T14:31:24;9.00;;;3.45;;
30553;SDS011;17335;50.720;7.452;2024-01-15T14:33:52;8.98;;;3.30;;
30553;SDS011;17335;50.720;7.452;2024-01-15T14:36:19;7.53;;;3.28;;
30553;SDS011;17335;50.720;7.452;2024-01-15T14:38:46;11.57;;;3.70;;
30553;SDS011;17335;50.720;7.452;2024-01-15T14:41:12;6.68;;;3.42;;
30553;SDS011;17335;50.720;7.452;2024-01-15T14:43:39;13.18;;;3.58;;
30553;SDS011;17335;50.720;7.452;2024-01-15T14:46:05;8.48;;;3.38;;
30553;SDS011;17335;50.720;7.452;2024-01-15T14:48:32;10.20;;;3.53;;
30553;SDS011;17335;50.720;7.452;2024-01-15T14:50:58;8.77;;;3.38;;